sensor_id;sensor_type;location;lat;lon;timestamp;P1;durP1;ratioP1;P2;durP2;ratioP2
64915;SDS011;51427;-27.442;153.014;2023-11-21T00:00:15;7.70;;;3.00;;
64915;SDS011;51427;-27.442;153.014;2023-11-21T00:02:43;9.23;;;3.05;;
64915;SDS011;51427;-27.442;153.014;2023-11-21T00:05:11;8.40;;;2.95;;
64915;SDS011;51427;-27.442;153.014;2023-11-21T00:07:42;6.75;;;2.80;;
64915;SDS011;51427;-27.442;153.014;2023-11-21T00:10:10;8.45;;;3.25;;
64915;SDS011;51427;-27.442;153.014;2023-11-21T00:12:39;6.35;;;2.63;;
64915;SDS011;51427;-27.442;153.014;2023-11-21T00:15:08;10.35;;;3.38;;
64915;SDS011;51427;-27.442;153.014;2023-11-21T00:17:38;8.68;;;3.10;;
64915;SDS011;51427;-27.442;153.014;2023-11-21T00:20:06;7.75;;;3.30;;
64915;SDS011;51427;-27.442;153.014;2023-11-21T00:22:34;10.93;;;4.10;;
64915;SDS011;51427;-27.442;153.014;2023-11-21T00:25:02;10.32;;;3.83;;
64915;SDS011;51427;-27.442;153.014;2023-11-21T00:27:29;9.32;;;3.58;;
64915;SDS011;51427;-27.442;153.014;2023-11-21T00:29:58;7.63;;;3.85;;
64915;SDS011;51427;-27.442;153.014;2023-11-21T00:32:25;5.68;;;3.50;;
64915;SDS011;51427;-27.442;153.014;2023-11-21T00:34:52;7.15;;;3.58;;
64915;SDS011;51427;-27.442;153.014;2023-11-21T00:37:20;11.63;;;4.05;;
64915;SDS011;51427;-27.442;153.014;2023-11-21T00:39:47;7.97;;;3.95;;
64915;SDS011;51427;-27.442;153.014;2023-11-21T00:42:14;9.85;;;3.70;;
64915;SDS011;51427;-27.442;153.014;2023-11-21T00:44:41;8.80;;;3.60;;
64915;SDS011;51427;-27.442;153.014;2023-11-21T00:47:09;8.70;;;3.38;;
64915;SDS011;51427;-27.442;153.014;2023-11-21T00:49:36;8.43;;;3.65;;
64915;SDS011;51427;-27.442;153.014;2023-11-21T00:52:05;12.43;;;3.75;;
64915;SDS011;51427;-27.442;153.014;2023-11-21T00:54:33;7.03;;;3.30;;
64915;SDS011;51427;-27.442;153.014;2023-11-21T00:57:00;5.82;;;3.17;;
64915;SDS011;51427;-27.442;153.014;2023-11-21T00:59:27;7.35;;;2.65;;
64915;SDS011;51427;-27.442;153.014;2023-11-21T01:01:54;9.60;;;3.05;;
64915;SDS011;51427;-27.442;153.014;2023-11-21T01:04:21;5.13;;;2.40;;
64915;SDS011;51427;-27.442;153.014;2023-11-21T01:06:49;8.25;;;2.90;;
64915;SDS011;51427;-27.442;153.014;2023-11-21T01:09:16;7.07;;;2.80;;
64915;SDS011;51427;-27.442;153.014;2023-11-21T01:11:44;11.55;;;3.50;;
64915;SDS011;51427;-27.442;153.014;2023-11-21T01:14:12;9.23;;;3.80;;
64915;SDS011;51427;-27.442;153.014;2023-11-21T01:16:39;9.98;;;3.58;;
64915;SDS011;51427;-27.442;153.014;2023-11-21T01:19:06;10.35;;;3.40;;
64915;SDS011;51427;-27.442;153.014;2023-11-21T01:21:34;8.10;;;3.35;;
64915;SDS011;51427;-27.442;153.014;2023-11-21T01:24:02;10.10;;;4.40;;
64915;SDS011;51427;-27.442;153.014;2023-11-21T01:26:33;10.70;;;4.43;;
64915;SDS011;51427;-27.442;153.014;2023-11-21T01:29:00;9.02;;;4.43;;
64915;SDS011;51427;-27.442;153.014;2023-11-21T01:31:27;10.68;;;3.47;;
64915;SDS011;51427;-27.442;153.014;2023-11-21T01:33:55;7.40;;;3.70;;
64915;SDS011;51427;-27.442;153.014;2023-11-21T01:36:22;9.98;;;4.05;;
64915;SDS011;51427;-27.442;153.014;2023-11-21T01:38:57;11.98;;;4.10;;
64915;SDS011;51427;-27.442;153.014;2023-11-21T01:44:00;10.18;;;4.57;;
64915;SDS011;51427;-27.442;153.014;2023-11-21T01:46:28;8.55;;;4.70;;
64915;SDS011;51427;-27.442;153.014;2023-11-21T01:48:56;9.75;;;4.70;;
64915;SDS011;51427;-27.442;153.014;2023-11-21T01:51:23;12.68;;;4.50;;
64915;SDS011;51427;-27.442;153.014;2023-11-21T01:53:52;8.88;;;4.18;;
64915;SDS011;51427;-27.442;153.014;2023-11-21T01:56:19;15.02;;;4.75;;
64915;SDS011;51427;-27.442;153.014;2023-11-21T01:58:47;10.48;;;4.50;;
64915;SDS011;51427;-27.442;153.014;2023-11-21T02:01:14;10.40;;;4.13;;
64915;SDS011;51427;-27.442;153.014;2023-11-21T02:03:44;10.10;;;4.35;;
64915;SDS011;51427;-27.442;153.014;2023-11-21T02:06:11;11.00;;;4.63;;
64915;SDS011;51427;-27.442;153.014;2023-11-21T02:08:38;10.30;;;4.10;;
64915;SDS011;51427;-27.442;153.014;2023-11-21T02:11:08;9.27;;;5.18;;
64915;SDS011;51427;-27.442;153.014;2023-11-21T02:13:38;6.13;;;4.10;;
64915;SDS011;51427;-27.442;153.014;2023-11-21T02:16:12;9.43;;;3.85;;
64915;SDS011;51427;-27.442;153.014;2023-11-21T02:18:39;9.45;;;4.05;;
64915;SDS011;51427;-27.442;153.014;2023-11-21T02:21:07;8.88;;;3.55;;
64915;SDS011;51427;-27.442;153.014;2023-11-21T02:23:35;7.80;;;3.20;;
64915;SDS011;51427;-27.442;153.014;2023-11-21T02:26:04;5.72;;;3.05;;
64915;SDS011;51427;-27.442;153.014;2023-11-21T02:28:31;9.40;;;3.13;;
64915;SDS011;51427;-27.442;153.014;2023-11-21T02:30:59;6.55;;;2.40;;
64915;SDS011;51427;-27.442;153.014;2023-11-21T02:33:28;6.28;;;3.20;;
64915;SDS011;51427;-27.442;153.014;2023-11-21T02:35:55;6.00;;;2.85;;
64915;SDS011;51427;-27.442;153.014;2023-11-21T02:38:22;4.03;;;1.85;;
64915;SDS011;51427;-27.442;153.014;2023-11-21T02:40:50;5.82;;;2.25;;
64915;SDS011;51427;-27.442;153.014;2023-11-21T02:43:17;3.55;;;2.22;;
64915;SDS011;51427;-27.442;153.014;2023-11-21T02:45:44;3.60;;;1.80;;
64915;SDS011;51427;-27.442;153.014;2023-11-21T02:48:11;3.20;;;1.83;;
64915;SDS011;51427;-27.442;153.014;2023-11-21T02:50:38;3.08;;;1.80;;
64915;SDS011;51427;-27.442;153.014;2023-11-21T02:53:06;3.08;;;1.80;;
64915;SDS011;51427;-27.442;153.014;2023-11-21T02:55:33;3.53;;;1.98;;
64915;SDS011;51427;-27.442;153.014;2023-11-21T02:58:00;4.47;;;2.00;;
64915;SDS011;51427;-27.442;153.014;2023-11-21T03:00:29;4.32;;;2.65;;
64915;SDS011;51427;-27.442;153.014;2023-11-21T03:02:56;4.18;;;2.60;;
64915;SDS011;51427;-27.442;153.014;2023-11-21T03:05:23;4.60;;;2.60;;
64915;SDS011;51427;-27.442;153.014;2023-11-21T03:07:51;5.45;;;1.75;;
64915;SDS011;51427;-27.442;153.014;2023-11-21T03:10:18;4.40;;;1.88;;
64915;SDS011;51427;-27.442;153.014;2023-11-21T03:12:45;2.95;;;1.42;;
64915;SDS011;51427;-27.442;153.014;2023-11-21T03:15:12;3.85;;;2.13;;
64915;SDS011;51427;-27.442;153.014;2023-11-21T03:17:40;6.32;;;1.92;;
64915;SDS011;51427;-27.442;153.014;2023-11-21T03:20:07;3.92;;;1.85;;
64915;SDS011;51427;-27.442;153.014;2023-11-21T03:22:38;3.08;;;1.85;;
64915;SDS011;51427;-27.442;153.014;2023-11-21T03:25:06;4.85;;;1.95;;
64915;SDS011;51427;-27.442;153.014;2023-11-21T03:27:37;4.00;;;2.00;;
64915;SDS011;51427;-27.442;153.014;2023-11-21T03:30:05;5.47;;;2.20;;
64915;SDS011;51427;-27.442;153.014;2023-11-21T03:32:34;4.13;;;2.22;;
64915;SDS011;51427;-27.442;153.014;2023-11-21T03:35:02;3.85;;;1.80;;
64915;SDS011;51427;-27.442;153.014;2023-11-21T03:37:29;3.33;;;1.10;;
64915;SDS011;51427;-27.442;153.014;2023-11-21T03:39:59;3.20;;;0.80;;
64915;SDS011;51427;-27.442;153.014;2023-11-21T03:42:29;1.10;;;0.47;;
64915;SDS011;51427;-27.442;153.014;2023-11-21T03:44:57;4.18;;;0.95;;
64915;SDS011;51427;-27.442;153.014;2023-11-21T03:47:29;3.20;;;0.80;;
64915;SDS011;51427;-27.442;153.014;2023-11-21T03:49:56;3.40;;;0.93;;
64915;SDS011;51427;-27.442;153.014;2023-11-21T03:52:24;2.97;;;0.77;;
64915;SDS011;51427;-27.442;153.014;2023-11-21T03:54:52;2.75;;;0.80;;
64915;SDS011;51427;-27.442;153.014;2023-11-21T03:57:21;7.40;;;1.35;;
64915;SDS011;51427;-27.442;153.014;2023-11-21T03:59:48;4.85;;;1.20;;
64915;SDS011;51427;-27.442;153.014;2023-11-21T04:02:16;2.63;;;1.20;;
64915;SDS011;51427;-27.442;153.014;2023-11-21T04:04:43;1.88;;;0.85;;
64915;SDS011;51427;-27.442;153.014;2023-11-21T04:07:11;5.82;;;1.20;;
64915;SDS011;51427;-27.442;153.014;2023-11-21T04:09:40;4.47;;;0.90;;
64915;SDS011;51427;-27.442;153.014;2023-11-21T04:12:08;2.67;;;1.38;;
64915;SDS011;51427;-27.442;153.014;2023-11-21T04:14:36;2.38;;;1.50;;
64915;SDS011;51427;-27.442;153.014;2023-11-21T04:17:03;2.10;;;1.30;;
64915;SDS011;51427;-27.442;153.014;2023-11-21T04:19:31;4.68;;;1.85;;
64915;SDS011;51427;-27.442;153.014;2023-11-21T04:21:58;4.93;;;1.60;;
64915;SDS011;51427;-27.442;153.014;2023-11-21T04:24:26;6.38;;;1.75;;
64915;SDS011;51427;-27.442;153.014;2023-11-21T04:26:53;8.25;;;1.88;;
64915;SDS011;51427;-27.442;153.014;2023-11-21T04:29:21;5.28;;;2.03;;
64915;SDS011;51427;-27.442;153.014;2023-11-21T04:31:49;2.17;;;1.10;;
64915;SDS011;51427;-27.442;153.014;2023-11-21T04:34:16;3.22;;;1.42;;
64915;SDS011;51427;-27.442;153.014;2023-11-21T04:36:44;4.00;;;1.55;;
64915;SDS011;51427;-27.442;153.014;2023-11-21T04:39:12;5.68;;;1.58;;
64915;SDS011;51427;-27.442;153.014;2023-11-21T04:41:39;6.05;;;1.85;;
64915;SDS011;51427;-27.442;153.014;2023-11-21T04:44:07;4.93;;;1.35;;
64915;SDS011;51427;-27.442;153.014;2023-11-21T04:46:34;4.85;;;1.27;;
64915;SDS011;51427;-27.442;153.014;2023-11-21T04:49:02;3.95;;;1.40;;
64915;SDS011;51427;-27.442;153.014;2023-11-21T04:51:30;4.63;;;1.15;;
64915;SDS011;51427;-27.442;153.014;2023-11-21T04:53:58;4.28;;;1.13;;
64915;SDS011;51427;-27.442;153.014;2023-11-21T04:56:25;5.63;;;1.55;;
64915;SDS011;51427;-27.442;153.014;2023-11-21T04:58:53;3.30;;;1.20;;
64915;SDS011;51427;-27.442;153.014;2023-11-21T05:01:21;5.20;;;1.45;;
64915;SDS011;51427;-27.442;153.014;2023-11-21T05:03:48;5.60;;;1.73;;
64915;SDS011;51427;-27.442;153.014;2023-11-21T05:06:16;5.20;;;3.25;;
64915;SDS011;51427;-27.442;153.014;2023-11-21T05:08:44;7.88;;;3.60;;
64915;SDS011;51427;-27.442;153.014;2023-11-21T05:11:11;3.13;;;2.63;;
64915;SDS011;51427;-27.442;153.014;2023-11-21T05:13:39;4.50;;;2.40;;
64915;SDS011;51427;-27.442;153.014;2023-11-21T05:16:06;5.40;;;2.08;;
64915;SDS011;51427;-27.442;153.014;2023-11-21T05:18:34;6.93;;;2.13;;
64915;SDS011;51427;-27.442;153.014;2023-11-21T05:21:02;4.65;;;1.80;;
64915;SDS011;51427;-27.442;153.014;2023-11-21T05:23:30;4.25;;;1.77;;
64915;SDS011;51427;-27.442;153.014;2023-11-21T05:25:59;4.18;;;1.55;;
64915;SDS011;51427;-27.442;153.014;2023-11-21T05:28:27;6.82;;;2.00;;
64915;SDS011;51427;-27.442;153.014;2023-11-21T05:30:54;5.75;;;1.70;;
64915;SDS011;51427;-27.442;153.014;2023-11-21T05:33:22;6.65;;;1.23;;
64915;SDS011;51427;-27.442;153.014;2023-11-21T05:35:51;6.90;;;1.85;;
64915;SDS011;51427;-27.442;153.014;2023-11-21T05:38:18;7.13;;;2.08;;
64915;SDS011;51427;-27.442;153.014;2023-11-21T05:40:47;4.63;;;1.60;;
64915;SDS011;51427;-27.442;153.014;2023-11-21T05:43:15;5.20;;;1.33;;
64915;SDS011;51427;-27.442;153.014;2023-11-21T05:45:43;6.45;;;1.73;;
64915;SDS011;51427;-27.442;153.014;2023-11-21T05:48:11;5.38;;;1.55;;
64915;SDS011;51427;-27.442;153.014;2023-11-21T05:50:38;5.93;;;1.70;;
64915;SDS011;51427;-27.442;153.014;2023-11-21T05:53:06;10.02;;;1.63;;
64915;SDS011;51427;-27.442;153.014;2023-11-21T05:55:35;4.90;;;1.30;;
64915;SDS011;51427;-27.442;153.014;2023-11-21T05:58:05;5.55;;;1.20;;
64915;SDS011;51427;-27.442;153.014;2023-11-21T06:00:33;4.50;;;1.30;;
64915;SDS011;51427;-27.442;153.014;2023-11-21T06:03:02;7.38;;;2.17;;
64915;SDS011;51427;-27.442;153.014;2023-11-21T06:05:32;9.52;;;1.55;;
64915;SDS011;51427;-27.442;153.014;2023-11-21T06:07:59;4.18;;;1.80;;
64915;SDS011;51427;-27.442;153.014;2023-11-21T06:10:27;7.90;;;2.15;;
64915;SDS011;51427;-27.442;153.014;2023-11-21T06:12:55;9.05;;;1.73;;
64915;SDS011;51427;-27.442;153.014;2023-11-21T06:15:23;7.65;;;1.73;;
64915;SDS011;51427;-27.442;153.014;2023-11-21T06:17:55;8.50;;;1.75;;
64915;SDS011;51427;-27.442;153.014;2023-11-21T06:20:23;4.65;;;1.77;;
64915;SDS011;51427;-27.442;153.014;2023-11-21T06:22:50;6.22;;;1.73;;
64915;SDS011;51427;-27.442;153.014;2023-11-21T06:25:18;7.55;;;2.08;;
64915;SDS011;51427;-27.442;153.014;2023-11-21T06:27:46;4.40;;;1.48;;
64915;SDS011;51427;-27.442;153.014;2023-11-21T06:30:15;12.75;;;2.33;;
64915;SDS011;51427;-27.442;153.014;2023-11-21T06:32:44;4.22;;;1.20;;
64915;SDS011;51427;-27.442;153.014;2023-11-21T06:35:12;6.85;;;2.05;;
64915;SDS011;51427;-27.442;153.014;2023-11-21T06:37:41;4.35;;;1.63;;
64915;SDS011;51427;-27.442;153.014;2023-11-21T06:40:13;5.15;;;1.65;;
64915;SDS011;51427;-27.442;153.014;2023-11-21T06:42:41;4.97;;;1.55;;
64915;SDS011;51427;-27.442;153.014;2023-11-21T06:45:10;8.50;;;1.65;;
64915;SDS011;51427;-27.442;153.014;2023-11-21T06:47:38;5.55;;;1.95;;
64915;SDS011;51427;-27.442;153.014;2023-11-21T06:50:05;5.65;;;1.70;;
64915;SDS011;51427;-27.442;153.014;2023-11-21T06:52:33;5.20;;;1.27;;
64915;SDS011;51427;-27.442;153.014;2023-11-21T06:55:01;4.35;;;1.60;;
64915;SDS011;51427;-27.442;153.014;2023-11-21T06:57:29;5.25;;;1.40;;
64915;SDS011;51427;-27.442;153.014;2023-11-21T06:59:58;5.65;;;1.38;;
64915;SDS011;51427;-27.442;153.014;2023-11-21T07:02:26;8.27;;;1.48;;
64915;SDS011;51427;-27.442;153.014;2023-11-21T07:04:54;6.32;;;1.70;;
64915;SDS011;51427;-27.442;153.014;2023-11-21T07:07:22;8.25;;;1.88;;
64915;SDS011;51427;-27.442;153.014;2023-11-21T07:09:49;4.70;;;1.80;;
64915;SDS011;51427;-27.442;153.014;2023-11-21T07:12:17;11.15;;;1.92;;
64915;SDS011;51427;-27.442;153.014;2023-11-21T07:14:45;5.10;;;1.70;;
64915;SDS011;51427;-27.442;153.014;2023-11-21T07:17:13;7.75;;;1.98;;
64915;SDS011;51427;-27.442;153.014;2023-11-21T07:19:40;7.57;;;2.05;;
64915;SDS011;51427;-27.442;153.014;2023-11-21T07:22:08;5.95;;;1.70;;
64915;SDS011;51427;-27.442;153.014;2023-11-21T07:24:36;7.45;;;1.73;;
64915;SDS011;51427;-27.442;153.014;2023-11-21T07:27:04;4.40;;;1.55;;
64915;SDS011;51427;-27.442;153.014;2023-11-21T07:29:31;3.65;;;1.83;;
64915;SDS011;51427;-27.442;153.014;2023-11-21T07:32:00;5.57;;;1.60;;
64915;SDS011;51427;-27.442;153.014;2023-11-21T07:34:27;8.30;;;1.90;;
64915;SDS011;51427;-27.442;153.014;2023-11-21T07:36:55;4.57;;;1.58;;
64915;SDS011;51427;-27.442;153.014;2023-11-21T07:39:26;6.60;;;1.83;;
64915;SDS011;51427;-27.442;153.014;2023-11-21T07:41:54;7.57;;;2.05;;
64915;SDS011;51427;-27.442;153.014;2023-11-21T07:44:23;5.93;;;1.88;;
64915;SDS011;51427;-27.442;153.014;2023-11-21T07:46:52;3.58;;;1.52;;
64915;SDS011;51427;-27.442;153.014;2023-11-21T07:49:23;4.68;;;1.52;;
64915;SDS011;51427;-27.442;153.014;2023-11-21T07:51:52;5.05;;;2.05;;
64915;SDS011;51427;-27.442;153.014;2023-11-21T07:54:20;6.25;;;2.50;;
64915;SDS011;51427;-27.442;153.014;2023-11-21T07:56:47;6.13;;;2.15;;
64915;SDS011;51427;-27.442;153.014;2023-11-21T07:59:15;8.15;;;2.28;;
64915;SDS011;51427;-27.442;153.014;2023-11-21T08:01:44;6.15;;;2.38;;
64915;SDS011;51427;-27.442;153.014;2023-11-21T08:04:11;7.43;;;2.13;;
64915;SDS011;51427;-27.442;153.014;2023-11-21T08:06:39;5.30;;;1.85;;
64915;SDS011;51427;-27.442;153.014;2023-11-21T08:09:07;7.80;;;2.40;;
64915;SDS011;51427;-27.442;153.014;2023-11-21T08:11:35;11.95;;;2.50;;
64915;SDS011;51427;-27.442;153.014;2023-11-21T08:14:05;6.85;;;2.67;;
64915;SDS011;51427;-27.442;153.014;2023-11-21T08:16:32;8.70;;;2.17;;
64915;SDS011;51427;-27.442;153.014;2023-11-21T08:19:04;6.28;;;2.22;;
64915;SDS011;51427;-27.442;153.014;2023-11-21T08:21:32;11.82;;;2.50;;
64915;SDS011;51427;-27.442;153.014;2023-11-21T08:23:59;6.47;;;1.98;;
64915;SDS011;51427;-27.442;153.014;2023-11-21T08:26:28;5.90;;;1.92;;
64915;SDS011;51427;-27.442;153.014;2023-11-21T08:28:56;4.38;;;1.83;;
64915;SDS011;51427;-27.442;153.014;2023-11-21T08:31:25;8.27;;;2.10;;
64915;SDS011;51427;-27.442;153.014;2023-11-21T08:33:52;5.50;;;2.20;;
64915;SDS011;51427;-27.442;153.014;2023-11-21T08:36:21;6.88;;;2.33;;
64915;SDS011;51427;-27.442;153.014;2023-11-21T08:38:50;6.72;;;2.22;;
64915;SDS011;51427;-27.442;153.014;2023-11-21T08:41:18;5.45;;;2.08;;
64915;SDS011;51427;-27.442;153.014;2023-11-21T08:43:52;8.48;;;2.30;;
64915;SDS011;51427;-27.442;153.014;2023-11-21T08:46:21;7.25;;;2.03;;
64915;SDS011;51427;-27.442;153.014;2023-11-21T08:48:48;6.85;;;2.38;;
64915;SDS011;51427;-27.442;153.014;2023-11-21T08:51:18;6.32;;;2.08;;
64915;SDS011;51427;-27.442;153.014;2023-11-21T08:53:46;6.18;;;1.70;;
64915;SDS011;51427;-27.442;153.014;2023-11-21T08:56:13;5.75;;;1.98;;
64915;SDS011;51427;-27.442;153.014;2023-11-21T08:58:41;5.45;;;1.95;;
64915;SDS011;51427;-27.442;153.014;2023-11-21T09:01:09;5.82;;;2.08;;
64915;SDS011;51427;-27.442;153.014;2023-11-21T09:03:38;7.40;;;2.13;;
64915;SDS011;51427;-27.442;153.014;2023-11-21T09:06:05;8.52;;;2.53;;
64915;SDS011;51427;-27.442;153.014;2023-11-21T09:08:35;10.38;;;2.25;;
64915;SDS011;51427;-27.442;153.014;2023-11-21T09:11:03;8.43;;;1.90;;
64915;SDS011;51427;-27.442;153.014;2023-11-21T09:13:31;5.10;;;2.00;;
64915;SDS011;51427;-27.442;153.014;2023-11-21T09:15:59;6.82;;;1.75;;
64915;SDS011;51427;-27.442;153.014;2023-11-21T09:18:26;8.48;;;1.95;;
64915;SDS011;51427;-27.442;153.014;2023-11-21T09:20:54;6.78;;;2.25;;
64915;SDS011;51427;-27.442;153.014;2023-11-21T09:23:22;5.95;;;3.42;;
64915;SDS011;51427;-27.442;153.014;2023-11-21T09:25:50;8.05;;;3.70;;
64915;SDS011;51427;-27.442;153.014;2023-11-21T09:28:20;7.35;;;2.42;;
64915;SDS011;51427;-27.442;153.014;2023-11-21T09:30:48;8.07;;;3.58;;
64915;SDS011;51427;-27.442;153.014;2023-11-21T09:33:16;7.70;;;2.72;;
64915;SDS011;51427;-27.442;153.014;2023-11-21T09:35:44;7.20;;;2.97;;
64915;SDS011;51427;-27.442;153.014;2023-11-21T09:38:11;5.45;;;2.75;;
64915;SDS011;51427;-27.442;153.014;2023-11-21T09:40:40;11.52;;;2.85;;
64915;SDS011;51427;-27.442;153.014;2023-11-21T09:43:15;6.45;;;2.42;;
64915;SDS011;51427;-27.442;153.014;2023-11-21T09:45:47;11.88;;;2.20;;
64915;SDS011;51427;-27.442;153.014;2023-11-21T09:48:24;9.85;;;2.47;;
64915;SDS011;51427;-27.442;153.014;2023-11-21T09:50:53;7.05;;;2.38;;
64915;SDS011;51427;-27.442;153.014;2023-11-21T09:53:21;6.90;;;2.42;;
64915;SDS011;51427;-27.442;153.014;2023-11-21T09:55:53;10.43;;;2.67;;
64915;SDS011;51427;-27.442;153.014;2023-11-21T09:58:22;10.73;;;2.78;;
64915;SDS011;51427;-27.442;153.014;2023-11-21T10:00:52;8.93;;;2.35;;
64915;SDS011;51427;-27.442;153.014;2023-11-21T10:03:22;9.73;;;2.50;;
64915;SDS011;51427;-27.442;153.014;2023-11-21T10:05:50;13.55;;;2.55;;
64915;SDS011;51427;-27.442;153.014;2023-11-21T10:08:19;9.45;;;2.70;;
64915;SDS011;51427;-27.442;153.014;2023-11-21T10:10:51;9.10;;;3.25;;
64915;SDS011;51427;-27.442;153.014;2023-11-21T10:13:20;10.30;;;3.00;;
64915;SDS011;51427;-27.442;153.014;2023-11-21T10:15:51;10.93;;;2.65;;
64915;SDS011;51427;-27.442;153.014;2023-11-21T10:18:19;12.75;;;3.88;;
64915;SDS011;51427;-27.442;153.014;2023-11-21T10:20:49;9.90;;;2.47;;
64915;SDS011;51427;-27.442;153.014;2023-11-21T10:23:21;9.23;;;2.92;;
64915;SDS011;51427;-27.442;153.014;2023-11-21T10:25:49;9.60;;;2.95;;
64915;SDS011;51427;-27.442;153.014;2023-11-21T10:28:20;13.43;;;2.88;;
64915;SDS011;51427;-27.442;153.014;2023-11-21T10:30:48;12.57;;;2.70;;
64915;SDS011;51427;-27.442;153.014;2023-11-21T10:33:16;11.77;;;2.80;;
64915;SDS011;51427;-27.442;153.014;2023-11-21T10:35:47;9.82;;;2.45;;
64915;SDS011;51427;-27.442;153.014;2023-11-21T10:38:23;9.60;;;2.40;;
64915;SDS011;51427;-27.442;153.014;2023-11-21T10:40:53;9.85;;;2.55;;
64915;SDS011;51427;-27.442;153.014;2023-11-21T10:43:24;11.45;;;2.53;;
64915;SDS011;51427;-27.442;153.014;2023-11-21T10:45:52;11.45;;;2.38;;
64915;SDS011;51427;-27.442;153.014;2023-11-21T10:48:24;15.32;;;2.90;;
64915;SDS011;51427;-27.442;153.014;2023-11-21T10:50:52;12.23;;;3.20;;
64915;SDS011;51427;-27.442;153.014;2023-11-21T10:53:22;11.98;;;3.08;;
64915;SDS011;51427;-27.442;153.014;2023-11-21T10:55:50;13.20;;;2.70;;
64915;SDS011;51427;-27.442;153.014;2023-11-21T10:58:28;11.80;;;2.75;;
64915;SDS011;51427;-27.442;153.014;2023-11-21T11:00:58;11.75;;;2.88;;
64915;SDS011;51427;-27.442;153.014;2023-11-21T11:03:28;12.77;;;2.88;;
64915;SDS011;51427;-27.442;153.014;2023-11-21T11:05:56;9.85;;;2.70;;
64915;SDS011;51427;-27.442;153.014;2023-11-21T11:08:24;13.40;;;2.90;;
64915;SDS011;51427;-27.442;153.014;2023-11-21T11:10:53;12.93;;;2.80;;
64915;SDS011;51427;-27.442;153.014;2023-11-21T11:13:21;9.75;;;2.65;;
64915;SDS011;51427;-27.442;153.014;2023-11-21T11:15:50;12.80;;;3.17;;
64915;SDS011;51427;-27.442;153.014;2023-11-21T11:18:25;10.73;;;2.95;;
64915;SDS011;51427;-27.442;153.014;2023-11-21T11:20:53;10.57;;;2.78;;
64915;SDS011;51427;-27.442;153.014;2023-11-21T11:34:31;9.88;;;2.85;;
64915;SDS011;51427;-27.442;153.014;2023-11-21T11:37:03;9.35;;;2.80;;
64915;SDS011;51427;-27.442;153.014;2023-11-21T11:42:07;10.45;;;2.90;;
64915;SDS011;51427;-27.442;153.014;2023-11-21T11:47:34;15.60;;;2.95;;
64915;SDS011;51427;-27.442;153.014;2023-11-21T11:50:05;12.00;;;2.90;;
64915;SDS011;51427;-27.442;153.014;2023-11-21T11:52:43;13.40;;;2.50;;
64915;SDS011;51427;-27.442;153.014;2023-11-21T11:55:21;11.25;;;2.60;;
64915;SDS011;51427;-27.442;153.014;2023-11-21T11:57:52;13.27;;;2.72;;
64915;SDS011;51427;-27.442;153.014;2023-11-21T12:02:59;9.70;;;2.58;;
64915;SDS011;51427;-27.442;153.014;2023-11-21T12:05:32;17.80;;;3.00;;
64915;SDS011;51427;-27.442;153.014;2023-11-21T12:08:11;11.43;;;2.90;;
64915;SDS011;51427;-27.442;153.014;2023-11-21T12:10:42;13.38;;;2.88;;
64915;SDS011;51427;-27.442;153.014;2023-11-21T12:13:10;7.25;;;2.88;;
64915;SDS011;51427;-27.442;153.014;2023-11-21T12:15:40;10.75;;;2.45;;
64915;SDS011;51427;-27.442;153.014;2023-11-21T12:18:08;13.65;;;2.72;;
64915;SDS011;51427;-27.442;153.014;2023-11-21T12:20:36;9.82;;;2.50;;
64915;SDS011;51427;-27.442;153.014;2023-11-21T12:23:08;11.82;;;2.78;;
64915;SDS011;51427;-27.442;153.014;2023-11-21T12:25:36;11.52;;;3.13;;
64915;SDS011;51427;-27.442;153.014;2023-11-21T12:28:05;13.57;;;2.65;;
64915;SDS011;51427;-27.442;153.014;2023-11-21T12:30:33;13.02;;;2.80;;
64915;SDS011;51427;-27.442;153.014;2023-11-21T12:33:03;18.83;;;3.58;;
64915;SDS011;51427;-27.442;153.014;2023-11-21T12:35:36;11.32;;;2.85;;
64915;SDS011;51427;-27.442;153.014;2023-11-21T12:38:05;10.98;;;2.60;;
64915;SDS011;51427;-27.442;153.014;2023-11-21T12:40:38;12.25;;;2.65;;
64915;SDS011;51427;-27.442;153.014;2023-11-21T12:43:06;15.25;;;2.92;;
64915;SDS011;51427;-27.442;153.014;2023-11-21T12:45:35;11.10;;;2.67;;
64915;SDS011;51427;-27.442;153.014;2023-11-21T12:48:05;17.00;;;3.30;;
64915;SDS011;51427;-27.442;153.014;2023-11-21T12:50:34;10.43;;;2.97;;
64915;SDS011;51427;-27.442;153.014;2023-11-21T12:53:04;11.07;;;3.10;;
64915;SDS011;51427;-27.442;153.014;2023-11-21T12:55:36;11.27;;;2.45;;
64915;SDS011;51427;-27.442;153.014;2023-11-21T12:58:07;18.95;;;3.88;;
64915;SDS011;51427;-27.442;153.014;2023-11-21T13:00:40;8.75;;;2.92;;
64915;SDS011;51427;-27.442;153.014;2023-11-21T13:03:17;9.77;;;3.30;;
64915;SDS011;51427;-27.442;153.014;2023-11-21T13:05:51;9.00;;;3.15;;
64915;SDS011;51427;-27.442;153.014;2023-11-21T13:08:23;9.32;;;2.70;;
64915;SDS011;51427;-27.442;153.014;2023-11-21T13:10:52;10.57;;;3.30;;
64915;SDS011;51427;-27.442;153.014;2023-11-21T13:13:23;10.15;;;3.00;;
64915;SDS011;51427;-27.442;153.014;2023-11-21T13:15:54;13.60;;;2.80;;
64915;SDS011;51427;-27.442;153.014;2023-11-21T13:18:31;12.80;;;3.05;;
64915;SDS011;51427;-27.442;153.014;2023-11-21T13:21:00;8.20;;;2.65;;
64915;SDS011;51427;-27.442;153.014;2023-11-21T13:23:35;9.30;;;2.90;;
64915;SDS011;51427;-27.442;153.014;2023-11-21T13:26:03;9.38;;;2.85;;
64915;SDS011;51427;-27.442;153.014;2023-11-21T13:28:32;14.95;;;3.47;;
64915;SDS011;51427;-27.442;153.014;2023-11-21T13:31:00;11.48;;;2.75;;
64915;SDS011;51427;-27.442;153.014;2023-11-21T13:33:35;9.57;;;2.50;;
64915;SDS011;51427;-27.442;153.014;2023-11-21T13:36:08;12.15;;;3.65;;
64915;SDS011;51427;-27.442;153.014;2023-11-21T13:38:36;7.10;;;2.50;;
64915;SDS011;51427;-27.442;153.014;2023-11-21T13:41:09;11.18;;;2.85;;
64915;SDS011;51427;-27.442;153.014;2023-11-21T13:43:39;8.60;;;2.83;;
64915;SDS011;51427;-27.442;153.014;2023-11-21T13:46:10;7.32;;;2.45;;
64915;SDS011;51427;-27.442;153.014;2023-11-21T13:48:48;11.13;;;3.17;;
64915;SDS011;51427;-27.442;153.014;2023-11-21T13:51:22;14.27;;;2.75;;
64915;SDS011;51427;-27.442;153.014;2023-11-21T13:54:15;6.85;;;2.53;;
64915;SDS011;51427;-27.442;153.014;2023-11-21T13:56:46;10.38;;;2.83;;
64915;SDS011;51427;-27.442;153.014;2023-11-21T13:59:19;12.48;;;2.92;;
64915;SDS011;51427;-27.442;153.014;2023-11-21T14:01:51;11.27;;;3.30;;
64915;SDS011;51427;-27.442;153.014;2023-11-21T14:04:27;7.63;;;2.72;;
64915;SDS011;51427;-27.442;153.014;2023-11-21T14:07:00;9.10;;;3.03;;
64915;SDS011;51427;-27.442;153.014;2023-11-21T14:09:46;14.10;;;3.17;;
64915;SDS011;51427;-27.442;153.014;2023-11-21T14:12:14;13.82;;;3.25;;
64915;SDS011;51427;-27.442;153.014;2023-11-21T14:14:42;11.68;;;3.33;;
64915;SDS011;51427;-27.442;153.014;2023-11-21T14:17:10;11.57;;;3.03;;
64915;SDS011;51427;-27.442;153.014;2023-11-21T14:19:38;16.23;;;3.25;;
64915;SDS011;51427;-27.442;153.014;2023-11-21T14:22:11;13.65;;;3.05;;
64915;SDS011;51427;-27.442;153.014;2023-11-21T14:24:39;9.55;;;2.50;;
64915;SDS011;51427;-27.442;153.014;2023-11-21T14:27:13;14.45;;;3.22;;
64915;SDS011;51427;-27.442;153.014;2023-11-21T14:29:43;12.27;;;2.85;;
64915;SDS011;51427;-27.442;153.014;2023-11-21T14:32:11;14.05;;;3.25;;
64915;SDS011;51427;-27.442;153.014;2023-11-21T14:34:39;14.27;;;3.08;;
64915;SDS011;51427;-27.442;153.014;2023-11-21T14:37:08;14.85;;;3.20;;